Bei Facebook empfehlenBei Twitter postenGoogle plusPinterest

Das Wetter im Erzgebirge am 03.09.2017

Wetter und Klima am 03.09.2017 Holzhau im Erzgebirge (630m ü.NN)
Letzte gemessene Temperatur und Uhrzeit der Messung23:45:00 Uhr4.30 °C
Temperatur (Maximum / Höchstwert) und Uhrzeit der Messung15:30:00 Uhr15.40 °C
Temperatur (Minimum / Tiefstwert) und Uhrzeit der Messung23:45:004.30 °C
Errechneter Absolutwert der Temperaturschwankungen zwischen Tmin und Tmax des Tages11.10 K
Errechnete Tagesmitteltemperatur10.27708 °C
Gesamt - Niederschlag des Tages (in flüssiger Form)0.00 Liter / m²
Luftdruck (Maximum / Höchstwert) und Zeitpunkt der Messung00:00:00 Uhr1014.20 hPa
Luftdruck (Minimum / Tiefstwert) und Zeitpunkt der Messung19:45:00 Uhr1012.00 hPa
Errechneter Absolutwert der Luftdruckschwankungen des Tages2.20 hPa
Höchste gemessene Windgeschwindigkeit und Uhrzeit der Messung13:15:00 Uhr18.00 km/h
Errechnete Windhäufigkeit in Relation zu den Messwerten des Tages3.12500 %
Niedrigste Windkühle (Windchill) und Zeitpunkt der Messung23:45:00 Uhr4.30 °C
Taupunkt (Maximum / Höchstwert) und Uhrzeit der Messung11:45:00 Uhr10.40 °C
Taupunkt (Minimum / Tiefstwert) und Uhrzeit der Messung23:45:002.80 °C
Anzahl der automatisch eingelesenen Messwerte 96

Detaillierte Wetter- und Klima- Messwerte für den 03.09.2017 in Holzhau im Erzgebirge (630m ü.NN)
ZeitTemperaturLuftdruckRel. LuftfeuchteWindWindrichtungWindchillTaupunktNiederschlag l/m²
23:45:004.30 °C1012.50 hPa90.00 %2.80 °C 
23:30:004.50 °C1012.50 hPa90.00 %3.00 °C 
23:15:004.90 °C1012.50 hPa90.00 %3.40 °C 
23:00:004.90 °C1012.50 hPa90.00 %3.40 °C 
22:45:005.00 °C1012.50 hPa90.00 %3.50 °C 
22:30:005.00 °C1012.60 hPa89.00 %3.30 °C 
22:15:005.30 °C1012.70 hPa88.00 %3.50 °C 
22:00:005.50 °C1012.60 hPa88.00 %3.70 °C 
21:45:005.80 °C1012.60 hPa87.00 %3.80 °C 
21:30:005.90 °C1012.50 hPa87.00 %3.90 °C 
21:15:006.30 °C1012.40 hPa85.00 %4.00 °C 
21:00:006.60 °C1012.40 hPa84.00 %4.10 °C 
20:45:007.20 °C1012.20 hPa83.00 %4.50 °C 
20:30:007.90 °C1012.30 hPa81.00 %4.80 °C 
20:15:008.80 °C1012.10 hPa80.00 %5.50 °C 
20:00:009.90 °C1012.10 hPa78.00 %6.20 °C 
19:45:0011.00 °C1012.00 hPa75.00 %6.70 °C 
19:30:0011.90 °C1012.10 hPa74.00 %7.40 °C 
19:15:0012.90 °C1012.00 hPa71.00 %7.80 °C 
19:00:0013.60 °C1012.00 hPa67.00 %7.60 °C 
18:45:0014.40 °C1012.10 hPa64.00 %7.70 °C 
18:30:0014.80 °C1012.10 hPa64.00 %8.10 °C 
18:15:0015.20 °C1012.20 hPa64.00 %8.40 °C 
18:00:0015.30 °C1012.10 hPa65.00 %8.80 °C 
17:45:0014.90 °C1012.30 hPa66.00 %8.60 °C 
17:30:0014.90 °C1012.30 hPa66.00 %8.60 °C 
17:15:0014.90 °C1012.30 hPa66.00 %8.60 °C 
17:00:0015.00 °C1012.30 hPa66.00 %8.70 °C 
16:45:0015.10 °C1012.30 hPa65.00 %8.60 °C 
16:30:0015.20 °C1012.40 hPa67.00 %9.10 °C 
16:15:0014.90 °C1012.30 hPa67.00 %8.80 °C 
16:00:0015.20 °C1012.20 hPa65.00 %8.70 °C 
15:45:0015.30 °C1012.20 hPa65.00 %8.80 °C 
15:30:0015.40 °C1012.10 hPa65.00 %8.90 °C 
15:15:0015.10 °C1012.40 hPa67.00 %9.00 °C 
15:00:0015.10 °C1012.40 hPa66.00 %8.80 °C 
14:45:0015.20 °C1012.40 hPa67.00 %9.10 °C 
14:30:0015.40 °C1012.60 hPa66.00 %9.10 °C 
14:15:0015.40 °C1012.50 hPa65.00 %6.48 km/hWNW15.40 °C8.90 °C 
14:00:0015.10 °C1012.60 hPa67.00 %5.04 km/hOSO15.10 °C9.00 °C 
13:45:0014.90 °C1012.50 hPa68.00 %9.10 °C 
13:30:0014.90 °C1012.50 hPa69.00 %9.30 °C 
13:15:0015.00 °C1012.50 hPa69.00 %18.00 km/hOSO15.40 °C9.40 °C 
13:00:0014.80 °C1012.50 hPa70.00 %9.40 °C 
12:45:0014.50 °C1012.60 hPa71.00 %9.30 °C 
12:30:0014.70 °C1012.40 hPa72.00 %9.70 °C 
12:15:0014.60 °C1012.60 hPa73.00 %9.80 °C 
12:00:0014.40 °C1012.50 hPa75.00 %10.00 °C 
11:45:0014.40 °C1012.80 hPa77.00 %10.40 °C 
11:30:0014.00 °C1012.90 hPa78.00 %10.20 °C 
11:15:0013.20 °C1013.00 hPa81.00 %10.00 °C 
11:00:0012.60 °C1013.10 hPa82.00 %9.60 °C 
10:45:0012.80 °C1013.40 hPa83.00 %10.00 °C 
10:30:0012.50 °C1013.30 hPa84.00 %9.90 °C 
10:15:0012.10 °C1013.30 hPa87.00 %10.00 °C 
10:00:0011.60 °C1013.50 hPa89.00 %9.90 °C 
09:45:0011.20 °C1013.30 hPa89.00 %9.50 °C 
09:30:0011.00 °C1013.30 hPa91.00 %9.60 °C 
09:15:0010.50 °C1013.20 hPa92.00 %9.30 °C 
09:00:0010.40 °C1013.10 hPa93.00 %9.30 °C 
08:45:0010.30 °C1013.10 hPa94.00 %9.40 °C 
08:30:0010.20 °C1013.10 hPa95.00 %9.40 °C 
08:15:0010.00 °C1012.90 hPa95.00 %9.20 °C 
08:00:009.80 °C1013.00 hPa95.00 %9.00 °C 
07:45:009.30 °C1013.00 hPa96.00 %8.70 °C 
07:30:009.00 °C1012.90 hPa96.00 %8.40 °C 
07:15:008.90 °C1012.80 hPa96.00 %8.30 °C 
07:00:008.80 °C1012.70 hPa95.00 %8.00 °C 
06:45:008.80 °C1012.70 hPa95.00 %8.00 °C 
06:30:008.60 °C1012.80 hPa95.00 %7.80 °C 
06:15:008.60 °C1012.60 hPa95.00 %7.80 °C 
06:00:008.50 °C1012.50 hPa95.00 %7.70 °C 
05:45:008.40 °C1012.50 hPa95.00 %7.60 °C 
05:30:008.30 °C1012.60 hPa95.00 %7.50 °C 
05:15:008.10 °C1012.90 hPa95.00 %7.30 °C 
05:00:008.10 °C1013.00 hPa95.00 %7.30 °C 
04:45:007.90 °C1013.10 hPa95.00 %7.10 °C 
04:30:007.90 °C1013.30 hPa95.00 %7.10 °C 
04:15:007.80 °C1013.40 hPa95.00 %7.10 °C 
04:00:007.70 °C1013.30 hPa95.00 %7.00 °C 
03:45:007.50 °C1013.20 hPa94.00 %6.60 °C 
03:30:007.30 °C1013.50 hPa95.00 %6.60 °C 
03:15:007.10 °C1013.50 hPa94.00 %6.20 °C 
03:00:006.90 °C1013.60 hPa94.00 %6.00 °C 
02:45:006.70 °C1013.50 hPa94.00 %5.80 °C 
02:30:006.40 °C1013.50 hPa94.00 %5.50 °C 
02:15:006.00 °C1013.70 hPa94.00 %5.10 °C 
02:00:005.60 °C1013.60 hPa94.00 %4.70 °C 
01:45:005.40 °C1013.70 hPa94.00 %4.50 °C 
01:30:005.40 °C1013.70 hPa93.00 %4.40 °C 
01:15:005.60 °C1013.80 hPa93.00 %4.60 °C 
01:00:005.50 °C1013.80 hPa93.00 %4.50 °C 
00:45:005.60 °C1014.00 hPa93.00 %4.60 °C 
00:30:005.80 °C1013.90 hPa93.00 %4.80 °C 
00:15:005.80 °C1014.10 hPa93.00 %4.80 °C 
00:00:005.90 °C1014.20 hPa92.00 %4.70 °C 

Permanenter Link zu dieser Seite: Wetter im Erzgebirge am 03.09.2017
Performance-Info: Die Erstellung der Seite / Statistik(en) / Tabelle(n) erforderte 5 Datenbankserver-Abfrage(n) und dauerte 101 Millisekunden. (Dieser Messwert ist von der Gesamt-Auslastung des Servers abhängig.)
Erzgebirge - Wetter | Erzgebirge - Wetter (Mobilgeräte) | Komplette Klimadatenbank